sensor_id;sensor_type;location;lat;lon;timestamp;pressure;altitude;pressure_sealevel;temperature;humidity
11053;BME280;55230;42.602;23.470;2023-02-12T00:01:19;94387.88;;;-1.68;55.49
11053;BME280;55230;42.602;23.470;2023-02-12T00:03:46;94414.47;;;-1.61;55.64
11053;BME280;55230;42.602;23.470;2023-02-12T00:06:13;94435.19;;;-1.44;55.10
11053;BME280;55230;42.602;23.470;2023-02-12T00:08:42;94422.25;;;-1.49;55.80
11053;BME280;55230;42.602;23.470;2023-02-12T00:11:10;94389.69;;;-1.53;56.17
11053;BME280;55230;42.602;23.470;2023-02-12T00:13:37;94104.97;;;-3.66;56.78
11053;BME280;55230;42.602;23.470;2023-02-12T00:16:06;94429.50;;;-1.27;57.08
11053;BME280;55230;42.602;23.470;2023-02-12T00:18:33;94389.53;;;-1.60;57.22
11053;BME280;55230;42.602;23.470;2023-02-12T00:21:00;94347.16;;;-1.82;58.24
11053;BME280;55230;42.602;23.470;2023-02-12T00:23:27;94442.22;;;-1.32;58.62
11053;BME280;55230;42.602;23.470;2023-02-12T00:25:56;94435.34;;;-1.37;59.87
11053;BME280;55230;42.602;23.470;2023-02-12T00:28:22;94445.84;;;-1.40;59.87
11053;BME280;55230;42.602;23.470;2023-02-12T00:30:49;94442.66;;;-1.49;60.80
11053;BME280;55230;42.602;23.470;2023-02-12T00:33:16;94341.19;;;-2.17;61.39
11053;BME280;55230;42.602;23.470;2023-02-12T00:35:43;94048.09;;;-4.17;61.60
11053;BME280;55230;42.602;23.470;2023-02-12T00:38:09;94343.19;;;-2.11;61.19
11053;BME280;55230;42.602;23.470;2023-02-12T00:40:36;94336.28;;;-2.15;61.29
11053;BME280;55230;42.602;23.470;2023-02-12T00:43:04;94422.69;;;-1.66;62.03
11053;BME280;55230;42.602;23.470;2023-02-12T00:45:31;94415.75;;;-1.70;61.67
11053;BME280;55230;42.602;23.470;2023-02-12T00:47:58;94406.78;;;-1.85;60.78
11053;BME280;55230;42.602;23.470;2023-02-12T00:50:24;94406.53;;;-1.61;59.43
11053;BME280;55230;42.602;23.470;2023-02-12T00:52:51;94379.16;;;-1.87;59.21
11053;BME280;55230;42.602;23.470;2023-02-12T00:55:18;94364.47;;;-2.04;59.91
11053;BME280;55230;42.602;23.470;2023-02-12T00:57:45;93960.75;;;-4.69;59.90
11053;BME280;55230;42.602;23.470;2023-02-12T01:00:14;94402.34;;;-1.62;60.48
11053;BME280;55230;42.602;23.470;2023-02-12T01:02:42;94303.28;;;-2.25;59.93
11053;BME280;55230;42.602;23.470;2023-02-12T01:05:08;94305.22;;;-2.22;60.99
11053;BME280;55230;42.602;23.470;2023-02-12T01:07:35;94380.34;;;-1.85;61.55
11053;BME280;55230;42.602;23.470;2023-02-12T01:10:04;94381.09;;;-1.84;62.11
11053;BME280;55230;42.602;23.470;2023-02-12T01:12:31;94205.19;;;-2.96;61.92
11053;BME280;55230;42.602;23.470;2023-02-12T01:14:58;94353.88;;;-2.23;62.84
11053;BME280;55230;42.602;23.470;2023-02-12T01:17:26;94302.50;;;-2.60;62.95
11053;BME280;55230;42.602;23.470;2023-02-12T01:19:56;94396.47;;;-2.09;63.94
11053;BME280;55230;42.602;23.470;2023-02-12T01:22:22;94308.91;;;-2.61;64.17
11053;BME280;55230;42.602;23.470;2023-02-12T01:24:49;94259.44;;;-2.99;63.89
11053;BME280;55230;42.602;23.470;2023-02-12T01:27:16;94403.47;;;-2.32;65.39
11053;BME280;55230;42.602;23.470;2023-02-12T01:29:43;94404.88;;;-2.19;65.71
11053;BME280;55230;42.602;23.470;2023-02-12T01:32:10;94393.66;;;-2.16;65.51
11053;BME280;55230;42.602;23.470;2023-02-12T01:34:38;94341.34;;;-2.61;65.22
11053;BME280;55230;42.602;23.470;2023-02-12T01:37:05;94219.13;;;-3.30;65.70
11053;BME280;55230;42.602;23.470;2023-02-12T01:39:32;94380.72;;;-2.21;65.67
11053;BME280;55230;42.602;23.470;2023-02-12T01:41:58;94005.09;;;-4.83;66.89
11053;BME280;55230;42.602;23.470;2023-02-12T01:44:28;94405.25;;;-2.36;67.52
11053;BME280;55230;42.602;23.470;2023-02-12T01:46:56;94370.44;;;-2.42;68.52
11053;BME280;55230;42.602;23.470;2023-02-12T01:49:26;94238.91;;;-3.21;67.85
11053;BME280;55230;42.602;23.470;2023-02-12T01:51:58;94284.78;;;-2.94;68.62
11053;BME280;55230;42.602;23.470;2023-02-12T01:54:27;94282.81;;;-2.97;69.01
11053;BME280;55230;42.602;23.470;2023-02-12T01:56:54;94361.25;;;-2.48;69.16
11053;BME280;55230;42.602;23.470;2023-02-12T01:59:21;94275.16;;;-3.02;69.45
11053;BME280;55230;42.602;23.470;2023-02-12T02:01:49;94348.31;;;-2.53;69.95
11053;BME280;55230;42.602;23.470;2023-02-12T02:04:18;94081.75;;;-4.69;69.56
11053;BME280;55230;42.602;23.470;2023-02-12T02:06:49;94355.72;;;-2.58;69.77
11053;BME280;55230;42.602;23.470;2023-02-12T02:09:19;94345.94;;;-2.58;69.79
11053;BME280;55230;42.602;23.470;2023-02-12T02:11:46;94046.16;;;-4.94;70.95
11053;BME280;55230;42.602;23.470;2023-02-12T02:14:30;94192.00;;;-3.78;71.99
11053;BME280;55230;42.602;23.470;2023-02-12T02:17:07;94352.50;;;-2.98;73.10
11053;BME280;55230;42.602;23.470;2023-02-12T02:19:53;94352.75;;;-3.03;73.63
11053;BME280;55230;42.602;23.470;2023-02-12T02:22:33;94369.72;;;-2.73;71.80
11053;BME280;55230;42.602;23.470;2023-02-12T02:25:16;93938.47;;;-5.61;71.02
11053;BME280;55230;42.602;23.470;2023-02-12T02:27:57;94067.19;;;-4.51;69.84
11053;BME280;55230;42.602;23.470;2023-02-12T02:30:34;94318.97;;;-2.82;70.29
11053;BME280;55230;42.602;23.470;2023-02-12T02:33:14;94297.19;;;-3.10;70.31
11053;BME280;55230;42.602;23.470;2023-02-12T02:35:51;94308.00;;;-3.00;70.73
11053;BME280;55230;42.602;23.470;2023-02-12T02:38:24;94235.81;;;-3.58;70.34
11053;BME280;55230;42.602;23.470;2023-02-12T02:40:59;94352.81;;;-2.53;69.69
11053;BME280;55230;42.602;23.470;2023-02-12T02:43:30;94347.28;;;-2.48;69.57
11053;BME280;55230;42.602;23.470;2023-02-12T02:46:04;94367.97;;;-2.50;70.02
11053;BME280;55230;42.602;23.470;2023-02-12T02:48:34;94293.34;;;-2.82;69.53
11053;BME280;55230;42.602;23.470;2023-02-12T02:51:07;94215.63;;;-3.34;68.96
11053;BME280;55230;42.602;23.470;2023-02-12T02:53:38;94188.44;;;-3.38;68.53
11053;BME280;55230;42.602;23.470;2023-02-12T02:56:11;94284.72;;;-2.63;69.17
11053;BME280;55230;42.602;23.470;2023-02-12T02:58:42;94338.56;;;-2.14;68.35
11053;BME280;55230;42.602;23.470;2023-02-12T03:01:15;94367.22;;;-1.81;68.18
11053;BME280;55230;42.602;23.470;2023-02-12T03:03:46;94373.38;;;-1.74;68.21
11053;BME280;55230;42.602;23.470;2023-02-12T03:06:19;94338.47;;;-1.83;67.42
11053;BME280;55230;42.602;23.470;2023-02-12T03:08:51;93980.31;;;-4.04;66.35
11053;BME280;55230;42.602;23.470;2023-02-12T03:11:22;94028.66;;;-3.78;66.83
11053;BME280;55230;42.602;23.470;2023-02-12T03:13:54;94371.16;;;-1.34;67.39
11053;BME280;55230;42.602;23.470;2023-02-12T03:16:25;94317.66;;;-1.65;67.24
11053;BME280;55230;42.602;23.470;2023-02-12T03:18:54;94359.88;;;-1.31;67.83
11053;BME280;55230;42.602;23.470;2023-02-12T03:21:30;94373.50;;;-1.29;67.36
11053;BME280;55230;42.602;23.470;2023-02-12T03:24:01;94364.88;;;-1.26;66.54
11053;BME280;55230;42.602;23.470;2023-02-12T03:26:38;94398.16;;;-1.25;67.02
11053;BME280;55230;42.602;23.470;2023-02-12T03:29:06;94370.38;;;-1.34;68.79
11053;BME280;55230;42.602;23.470;2023-02-12T03:31:40;94337.78;;;-1.61;68.65
11053;BME280;55230;42.602;23.470;2023-02-12T03:34:16;94319.00;;;-1.75;68.39
11053;BME280;55230;42.602;23.470;2023-02-12T03:36:48;94321.66;;;-1.75;68.50
11053;BME280;55230;42.602;23.470;2023-02-12T03:39:24;94289.09;;;-1.79;68.39
11053;BME280;55230;42.602;23.470;2023-02-12T03:41:59;94281.09;;;-1.82;68.97
11053;BME280;55230;42.602;23.470;2023-02-12T03:44:40;94401.19;;;-1.45;69.49
11053;BME280;55230;42.602;23.470;2023-02-12T03:47:20;94282.75;;;-1.74;69.88
11053;BME280;55230;42.602;23.470;2023-02-12T03:49:52;94317.41;;;-1.38;69.86
11053;BME280;55230;42.602;23.470;2023-02-12T03:52:21;94337.03;;;-1.20;70.36
11053;BME280;55230;42.602;23.470;2023-02-12T03:54:48;94338.13;;;-1.21;70.41
11053;BME280;55230;42.602;23.470;2023-02-12T03:57:18;94350.38;;;-1.12;70.14
11053;BME280;55230;42.602;23.470;2023-02-12T03:59:47;94346.44;;;-1.41;71.93
11053;BME280;55230;42.602;23.470;2023-02-12T04:02:17;94232.09;;;-2.18;71.33
11053;BME280;55230;42.602;23.470;2023-02-12T04:04:45;94236.69;;;-2.15;69.91
11053;BME280;55230;42.602;23.470;2023-02-12T04:07:13;94199.41;;;-2.29;70.07
11053;BME280;55230;42.602;23.470;2023-02-12T04:09:41;94353.31;;;-1.17;70.48
11053;BME280;55230;42.602;23.470;2023-02-12T04:12:23;94347.78;;;-1.09;70.57
11053;BME280;55230;42.602;23.470;2023-02-12T04:15:07;94142.47;;;-2.68;70.70
11053;BME280;55230;42.602;23.470;2023-02-12T04:17:44;94161.97;;;-2.35;71.15
11053;BME280;55230;42.602;23.470;2023-02-12T04:20:18;94303.03;;;-1.40;71.89
11053;BME280;55230;42.602;23.470;2023-02-12T04:22:53;94321.44;;;-1.25;71.30
11053;BME280;55230;42.602;23.470;2023-02-12T04:25:32;94343.38;;;-1.01;71.89
11053;BME280;55230;42.602;23.470;2023-02-12T04:28:06;94360.09;;;-0.97;72.89
11053;BME280;55230;42.602;23.470;2023-02-12T04:30:40;94022.06;;;-3.53;73.00
11053;BME280;55230;42.602;23.470;2023-02-12T04:33:13;94390.66;;;-1.23;74.16
11053;BME280;55230;42.602;23.470;2023-02-12T04:35:47;94315.72;;;-1.87;74.68
11053;BME280;55230;42.602;23.470;2023-02-12T04:38:18;94370.72;;;-1.17;74.19
11053;BME280;55230;42.602;23.470;2023-02-12T04:40:48;94344.88;;;-1.46;75.37
11053;BME280;55230;42.602;23.470;2023-02-12T04:43:25;94376.50;;;-1.11;75.51
11053;BME280;55230;42.602;23.470;2023-02-12T04:45:52;94328.00;;;-1.38;74.79
11053;BME280;55230;42.602;23.470;2023-02-12T04:48:20;94179.78;;;-2.31;74.95
11053;BME280;55230;42.602;23.470;2023-02-12T04:50:47;94377.91;;;-0.94;75.35
11053;BME280;55230;42.602;23.470;2023-02-12T04:53:14;94299.22;;;-1.62;74.94
11053;BME280;55230;42.602;23.470;2023-02-12T04:55:41;94380.00;;;-1.03;74.88
11053;BME280;55230;42.602;23.470;2023-02-12T04:58:08;94287.94;;;-1.81;74.88
11053;BME280;55230;42.602;23.470;2023-02-12T05:00:35;94375.28;;;-1.13;74.18
11053;BME280;55230;42.602;23.470;2023-02-12T05:03:02;94363.25;;;-1.11;74.64
11053;BME280;55230;42.602;23.470;2023-02-12T05:05:30;94373.06;;;-1.11;74.43
11053;BME280;55230;42.602;23.470;2023-02-12T05:07:57;94372.75;;;-1.29;73.89
11053;BME280;55230;42.602;23.470;2023-02-12T05:10:24;94327.66;;;-1.55;73.95
11053;BME280;55230;42.602;23.470;2023-02-12T05:12:51;94312.22;;;-1.53;73.57
11053;BME280;55230;42.602;23.470;2023-02-12T05:15:17;94331.13;;;-1.32;73.36
11053;BME280;55230;42.602;23.470;2023-02-12T05:17:44;94383.63;;;-1.53;73.66
11053;BME280;55230;42.602;23.470;2023-02-12T05:20:12;94365.59;;;-1.06;72.99
11053;BME280;55230;42.602;23.470;2023-02-12T05:22:40;93985.16;;;-3.72;72.85
11053;BME280;55230;42.602;23.470;2023-02-12T05:25:07;94375.22;;;-1.17;73.13
11053;BME280;55230;42.602;23.470;2023-02-12T05:27:34;94224.03;;;-2.06;72.60
11053;BME280;55230;42.602;23.470;2023-02-12T05:30:01;94393.78;;;-0.94;72.70
11053;BME280;55230;42.602;23.470;2023-02-12T05:32:28;94343.56;;;-1.33;72.23
11053;BME280;55230;42.602;23.470;2023-02-12T05:34:54;94372.16;;;-1.19;71.33
11053;BME280;55230;42.602;23.470;2023-02-12T05:37:21;94410.78;;;-0.95;71.46
11053;BME280;55230;42.602;23.470;2023-02-12T05:39:49;94364.00;;;-1.52;71.10
11053;BME280;55230;42.602;23.470;2023-02-12T05:42:16;94427.47;;;-0.91;71.67
11053;BME280;55230;42.602;23.470;2023-02-12T05:44:43;94320.53;;;-1.93;74.36
11053;BME280;55230;42.602;23.470;2023-02-12T05:47:10;94427.25;;;-1.05;76.86
11053;BME280;55230;42.602;23.470;2023-02-12T05:49:36;94347.53;;;-1.65;80.71
11053;BME280;55230;42.602;23.470;2023-02-12T05:52:03;94418.59;;;-1.02;81.53
11053;BME280;55230;42.602;23.470;2023-02-12T05:54:30;94420.97;;;-0.97;82.07
11053;BME280;55230;42.602;23.470;2023-02-12T05:56:58;94402.47;;;-1.17;81.29
11053;BME280;55230;42.602;23.470;2023-02-12T05:59:25;94434.03;;;-0.85;80.68
11053;BME280;55230;42.602;23.470;2023-02-12T06:01:52;94273.50;;;-1.84;79.71
11053;BME280;55230;42.602;23.470;2023-02-12T06:04:20;94390.59;;;-1.03;80.58
11053;BME280;55230;42.602;23.470;2023-02-12T06:06:48;94440.94;;;-0.58;79.54
11053;BME280;55230;42.602;23.470;2023-02-12T06:09:15;94431.81;;;-0.61;78.51
11053;BME280;55230;42.602;23.470;2023-02-12T06:11:42;94354.56;;;-1.31;79.29
11053;BME280;55230;42.602;23.470;2023-02-12T06:14:12;94443.47;;;-0.65;79.78
11053;BME280;55230;42.602;23.470;2023-02-12T06:16:40;94362.66;;;-1.24;80.70
11053;BME280;55230;42.602;23.470;2023-02-12T06:19:06;94450.72;;;-0.62;81.31
11053;BME280;55230;42.602;23.470;2023-02-12T06:21:33;94438.34;;;-0.55;81.43
11053;BME280;55230;42.602;23.470;2023-02-12T06:24:00;94409.78;;;-0.87;82.50
11053;BME280;55230;42.602;23.470;2023-02-12T06:26:27;94371.69;;;-1.05;81.95
11053;BME280;55230;42.602;23.470;2023-02-12T06:28:54;94430.50;;;-0.70;82.97
11053;BME280;55230;42.602;23.470;2023-02-12T06:31:24;94441.78;;;-0.54;82.38
11053;BME280;55230;42.602;23.470;2023-02-12T06:33:53;94447.41;;;-0.56;83.21
11053;BME280;55230;42.602;23.470;2023-02-12T06:36:20;94507.75;;;-0.46;84.29
11053;BME280;55230;42.602;23.470;2023-02-12T06:38:47;94451.88;;;-0.60;85.25
11053;BME280;55230;42.602;23.470;2023-02-12T06:41:14;94326.19;;;-1.34;86.20
11053;BME280;55230;42.602;23.470;2023-02-12T06:43:41;94313.13;;;-1.46;86.54
11053;BME280;55230;42.602;23.470;2023-02-12T06:46:08;94343.06;;;-1.42;87.96
11053;BME280;55230;42.602;23.470;2023-02-12T06:48:37;94207.63;;;-2.34;89.20
11053;BME280;55230;42.602;23.470;2023-02-12T06:51:05;94414.97;;;-0.94;90.25
11053;BME280;55230;42.602;23.470;2023-02-12T06:53:32;94453.38;;;-0.62;90.17
11053;BME280;55230;42.602;23.470;2023-02-12T06:56:00;94425.56;;;-0.94;90.48
11053;BME280;55230;42.602;23.470;2023-02-12T06:58:27;94450.94;;;-0.71;91.76
11053;BME280;55230;42.602;23.470;2023-02-12T07:00:54;94455.47;;;-0.71;92.97
11053;BME280;55230;42.602;23.470;2023-02-12T07:03:21;94412.22;;;-1.21;93.67
11053;BME280;55230;42.602;23.470;2023-02-12T07:05:49;94460.34;;;-0.73;94.20
11053;BME280;55230;42.602;23.470;2023-02-12T07:08:16;94282.28;;;-1.80;93.86
11053;BME280;55230;42.602;23.470;2023-02-12T07:10:47;94452.94;;;-0.64;94.56
11053;BME280;55230;42.602;23.470;2023-02-12T07:13:14;94371.56;;;-1.12;94.34
11053;BME280;55230;42.602;23.470;2023-02-12T07:15:43;94391.63;;;-0.89;93.84
11053;BME280;55230;42.602;23.470;2023-02-12T07:18:10;94458.50;;;-0.50;93.28
11053;BME280;55230;42.602;23.470;2023-02-12T07:20:37;94425.94;;;-0.73;93.69
11053;BME280;55230;42.602;23.470;2023-02-12T07:23:05;94464.91;;;-0.51;93.63
11053;BME280;55230;42.602;23.470;2023-02-12T07:25:32;94394.25;;;-1.11;93.54
11053;BME280;55230;42.602;23.470;2023-02-12T07:27:59;94212.06;;;-2.38;93.97
11053;BME280;55230;42.602;23.470;2023-02-12T07:30:26;94321.25;;;-1.35;93.55
11053;BME280;55230;42.602;23.470;2023-02-12T07:32:52;94201.78;;;-2.24;92.80
11053;BME280;55230;42.602;23.470;2023-02-12T07:35:19;94460.31;;;-0.54;93.44
11053;BME280;55230;42.602;23.470;2023-02-12T07:37:47;94095.53;;;-2.97;93.62
11053;BME280;55230;42.602;23.470;2023-02-12T07:40:15;94259.06;;;-2.09;93.80
11053;BME280;55230;42.602;23.470;2023-02-12T07:42:42;94470.50;;;-0.34;93.70
11053;BME280;55230;42.602;23.470;2023-02-12T07:45:09;94347.25;;;-1.18;93.00
11053;BME280;55230;42.602;23.470;2023-02-12T07:47:35;94423.34;;;-0.47;92.34
11053;BME280;55230;42.602;23.470;2023-02-12T07:50:04;94432.38;;;-0.48;93.06
11053;BME280;55230;42.602;23.470;2023-02-12T07:52:31;94467.66;;;-0.22;92.71
11053;BME280;55230;42.602;23.470;2023-02-12T07:54:58;94406.13;;;-0.79;93.06
11053;BME280;55230;42.602;23.470;2023-02-12T07:57:26;94475.56;;;-0.48;93.53
11053;BME280;55230;42.602;23.470;2023-02-12T07:59:53;94348.44;;;-1.35;94.16
11053;BME280;55230;42.602;23.470;2023-02-12T08:02:19;94483.84;;;-0.49;95.13
11053;BME280;55230;42.602;23.470;2023-02-12T08:04:46;94482.75;;;-0.67;95.49
11053;BME280;55230;42.602;23.470;2023-02-12T08:07:13;94486.03;;;-0.55;96.23
11053;BME280;55230;42.602;23.470;2023-02-12T08:09:40;94485.16;;;-0.62;96.62
11053;BME280;55230;42.602;23.470;2023-02-12T08:12:06;94493.78;;;-0.65;97.08
11053;BME280;55230;42.602;23.470;2023-02-12T08:14:35;94564.59;;;-0.62;97.20
11053;BME280;55230;42.602;23.470;2023-02-12T08:17:01;94485.16;;;-0.62;98.31
11053;BME280;55230;42.602;23.470;2023-02-12T08:19:29;94491.28;;;-0.77;98.73
11053;BME280;55230;42.602;23.470;2023-02-12T08:21:55;94481.81;;;-0.78;99.55
11053;BME280;55230;42.602;23.470;2023-02-12T08:24:23;94489.75;;;-0.59;99.39
11053;BME280;55230;42.602;23.470;2023-02-12T08:26:50;94489.09;;;-0.53;99.15
11053;BME280;55230;42.602;23.470;2023-02-12T08:29:19;94495.41;;;-0.38;98.21
11053;BME280;55230;42.602;23.470;2023-02-12T08:31:48;94504.88;;;-0.37;97.19
11053;BME280;55230;42.602;23.470;2023-02-12T08:34:17;94498.69;;;-0.22;96.31
11053;BME280;55230;42.602;23.470;2023-02-12T08:36:45;94500.25;;;-0.21;95.65
11053;BME280;55230;42.602;23.470;2023-02-12T08:39:14;94502.81;;;-0.02;95.58
11053;BME280;55230;42.602;23.470;2023-02-12T08:41:41;94259.47;;;-2.26;94.21
11053;BME280;55230;42.602;23.470;2023-02-12T08:44:08;94505.91;;;-0.23;94.54
11053;BME280;55230;42.602;23.470;2023-02-12T08:46:37;94337.34;;;-1.44;95.07
11053;BME280;55230;42.602;23.470;2023-02-12T08:49:10;94512.06;;;-0.38;95.48
11053;BME280;55230;42.602;23.470;2023-02-12T08:51:38;94515.06;;;-0.39;95.79
11053;BME280;55230;42.602;23.470;2023-02-12T08:54:08;94459.66;;;-0.89;96.18
11053;BME280;55230;42.602;23.470;2023-02-12T08:56:35;94515.34;;;-0.44;96.13
11053;BME280;55230;42.602;23.470;2023-02-12T08:59:04;94525.66;;;-0.39;96.66
11053;BME280;55230;42.602;23.470;2023-02-12T09:01:33;94464.44;;;-1.17;96.29
11053;BME280;55230;42.602;23.470;2023-02-12T09:04:02;94414.53;;;-0.96;96.63
11053;BME280;55230;42.602;23.470;2023-02-12T09:06:32;94493.81;;;-0.43;95.99
11053;BME280;55230;42.602;23.470;2023-02-12T09:09:00;94422.28;;;-0.65;94.87
11053;BME280;55230;42.602;23.470;2023-02-12T09:11:27;94526.59;;;0.17;94.41
11053;BME280;55230;42.602;23.470;2023-02-12T09:13:57;94470.19;;;-0.06;94.13
11053;BME280;55230;42.602;23.470;2023-02-12T09:16:24;94368.38;;;-0.76;93.22
11053;BME280;55230;42.602;23.470;2023-02-12T09:18:51;94527.94;;;0.30;93.19
11053;BME280;55230;42.602;23.470;2023-02-12T09:21:18;94531.72;;;0.29;93.51
11053;BME280;55230;42.602;23.470;2023-02-12T09:23:46;94481.50;;;-0.09;92.92
11053;BME280;55230;42.602;23.470;2023-02-12T09:26:16;94511.44;;;0.18;93.12
11053;BME280;55230;42.602;23.470;2023-02-12T09:28:45;94547.31;;;0.34;93.15
11053;BME280;55230;42.602;23.470;2023-02-12T09:31:14;94541.34;;;0.41;93.54
11053;BME280;55230;42.602;23.470;2023-02-12T09:33:42;94539.97;;;0.50;92.71
11053;BME280;55230;42.602;23.470;2023-02-12T09:36:11;94548.81;;;0.58;92.63
11053;BME280;55230;42.602;23.470;2023-02-12T09:38:38;94544.31;;;0.36;93.12
11053;BME280;55230;42.602;23.470;2023-02-12T09:41:33;94460.63;;;0.12;93.90
11053;BME280;55230;42.602;23.470;2023-02-12T09:44:07;94547.78;;;0.66;92.94
11053;BME280;55230;42.602;23.470;2023-02-12T09:46:42;94588.69;;;0.39;93.33
11053;BME280;55230;42.602;23.470;2023-02-12T09:49:18;94500.16;;;0.50;92.80
11053;BME280;55230;42.602;23.470;2023-02-12T09:51:51;94393.50;;;-0.18;90.92
11053;BME280;55230;42.602;23.470;2023-02-12T09:54:21;94544.13;;;1.03;90.81
11053;BME280;55230;42.602;23.470;2023-02-12T09:56:52;94488.28;;;0.96;90.19
11053;BME280;55230;42.602;23.470;2023-02-12T09:59:28;94516.03;;;1.02;88.96
11053;BME280;55230;42.602;23.470;2023-02-12T10:01:57;94556.38;;;1.45;90.02
11053;BME280;55230;42.602;23.470;2023-02-12T10:04:25;94454.69;;;0.48;89.66
11053;BME280;55230;42.602;23.470;2023-02-12T10:07:00;94560.59;;;1.16;90.17
11053;BME280;55230;42.602;23.470;2023-02-12T10:09:39;94511.59;;;0.80;89.62
11053;BME280;55230;42.602;23.470;2023-02-12T10:12:20;94496.34;;;0.74;90.10
11053;BME280;55230;42.602;23.470;2023-02-12T10:15:12;94550.09;;;1.27;90.76
11053;BME280;55230;42.602;23.470;2023-02-12T10:17:42;94518.44;;;1.14;89.66
11053;BME280;55230;42.602;23.470;2023-02-12T10:20:39;94555.03;;;1.61;87.87
11053;BME280;55230;42.602;23.470;2023-02-12T10:23:24;94556.00;;;1.79;87.61
11053;BME280;55230;42.602;23.470;2023-02-12T10:25:55;94552.72;;;1.56;88.54
11053;BME280;55230;42.602;23.470;2023-02-12T10:28:27;94563.00;;;1.61;89.25
11053;BME280;55230;42.602;23.470;2023-02-12T10:30:59;94545.91;;;1.59;87.80
11053;BME280;55230;42.602;23.470;2023-02-12T10:33:31;94481.03;;;1.27;88.05
11053;BME280;55230;42.602;23.470;2023-02-12T10:36:05;94564.25;;;1.67;87.22
11053;BME280;55230;42.602;23.470;2023-02-12T10:38:39;94560.50;;;1.75;88.35
11053;BME280;55230;42.602;23.470;2023-02-12T10:41:09;94513.63;;;1.57;86.03
11053;BME280;55230;42.602;23.470;2023-02-12T10:43:39;94494.31;;;1.63;86.23
11053;BME280;55230;42.602;23.470;2023-02-12T10:46:11;94557.47;;;1.77;86.06
11053;BME280;55230;42.602;23.470;2023-02-12T10:48:39;94559.00;;;1.78;86.96
11053;BME280;55230;42.602;23.470;2023-02-12T10:51:33;94454.38;;;1.19;86.21
11053;BME280;55230;42.602;23.470;2023-02-12T10:54:32;94549.88;;;2.15;85.75
11053;BME280;55230;42.602;23.470;2023-02-12T10:57:05;94558.66;;;2.23;85.60
11053;BME280;55230;42.602;23.470;2023-02-12T10:59:35;94561.53;;;2.48;84.93
11053;BME280;55230;42.602;23.470;2023-02-12T11:02:03;94336.72;;;1.15;82.55
11053;BME280;55230;42.602;23.470;2023-02-12T11:04:32;94487.56;;;2.20;83.82
11053;BME280;55230;42.602;23.470;2023-02-12T11:07:00;94522.88;;;2.68;82.17
11053;BME280;55230;42.602;23.470;2023-02-12T11:09:28;94529.22;;;2.49;81.98
11053;BME280;55230;42.602;23.470;2023-02-12T11:11:56;94539.28;;;2.73;83.31
11053;BME280;55230;42.602;23.470;2023-02-12T11:14:23;94220.66;;;0.72;81.76
11053;BME280;55230;42.602;23.470;2023-02-12T11:16:54;94498.94;;;2.71;80.88
11053;BME280;55230;42.602;23.470;2023-02-12T11:19:23;94355.78;;;1.72;81.63
11053;BME280;55230;42.602;23.470;2023-02-12T11:21:51;94558.59;;;3.31;80.77
11053;BME280;55230;42.602;23.470;2023-02-12T11:24:29;94544.72;;;2.94;79.89
11053;BME280;55230;42.602;23.470;2023-02-12T11:27:20;94545.00;;;2.79;81.83
11053;BME280;55230;42.602;23.470;2023-02-12T11:30:06;94497.81;;;2.18;80.05
11053;BME280;55230;42.602;23.470;2023-02-12T11:32:39;94553.22;;;3.14;79.84
11053;BME280;55230;42.602;23.470;2023-02-12T11:35:13;94513.00;;;2.68;80.06
11053;BME280;55230;42.602;23.470;2023-02-12T11:37:44;94559.38;;;3.35;79.50
11053;BME280;55230;42.602;23.470;2023-02-12T11:40:16;94302.09;;;1.56;77.79
11053;BME280;55230;42.602;23.470;2023-02-12T11:42:49;94556.38;;;3.40;77.85
11053;BME280;55230;42.602;23.470;2023-02-12T11:45:19;94547.22;;;3.34;77.54
11053;BME280;55230;42.602;23.470;2023-02-12T11:47:49;94503.66;;;3.02;78.00
11053;BME280;55230;42.602;23.470;2023-02-12T11:50:23;94496.09;;;3.11;77.92
11053;BME280;55230;42.602;23.470;2023-02-12T11:52:53;94567.34;;;3.28;77.80
11053;BME280;55230;42.602;23.470;2023-02-12T11:55:24;94600.19;;;3.46;79.49
11053;BME280;55230;42.602;23.470;2023-02-12T11:57:52;94577.97;;;3.18;78.74
11053;BME280;55230;42.602;23.470;2023-02-12T12:00:23;94484.66;;;2.39;79.47
11053;BME280;55230;42.602;23.470;2023-02-12T12:02:56;94526.53;;;2.46;80.25
11053;BME280;55230;42.602;23.470;2023-02-12T12:05:30;94350.31;;;1.07;82.53
11053;BME280;55230;42.602;23.470;2023-02-12T12:08:04;94577.88;;;2.46;82.18
11053;BME280;55230;42.602;23.470;2023-02-12T12:10:34;94558.22;;;2.61;82.77
11053;BME280;55230;42.602;23.470;2023-02-12T12:13:07;94510.72;;;2.16;82.05
11053;BME280;55230;42.602;23.470;2023-02-12T12:15:42;94500.75;;;2.06;82.47
11053;BME280;55230;42.602;23.470;2023-02-12T12:18:33;94557.88;;;2.70;82.60
11053;BME280;55230;42.602;23.470;2023-02-12T12:21:25;94563.63;;;2.75;81.96
11053;BME280;55230;42.602;23.470;2023-02-12T12:23:56;94571.31;;;2.87;80.92
11053;BME280;55230;42.602;23.470;2023-02-12T12:26:26;94528.84;;;2.51;81.04
11053;BME280;55230;42.602;23.470;2023-02-12T12:29:00;94524.59;;;2.39;82.19
11053;BME280;55230;42.602;23.470;2023-02-12T12:31:31;94555.84;;;2.49;82.03
11053;BME280;55230;42.602;23.470;2023-02-12T12:34:05;94532.47;;;2.25;82.44
11053;BME280;55230;42.602;23.470;2023-02-12T12:36:45;94486.88;;;1.79;83.39
11053;BME280;55230;42.602;23.470;2023-02-12T12:39:26;94552.28;;;1.87;83.53
11053;BME280;55230;42.602;23.470;2023-02-12T12:42:13;94497.91;;;1.85;82.21
11053;BME280;55230;42.602;23.470;2023-02-12T12:44:55;94471.06;;;1.53;83.50
11053;BME280;55230;42.602;23.470;2023-02-12T12:47:36;94570.44;;;2.18;83.94
11053;BME280;55230;42.602;23.470;2023-02-12T12:50:21;94468.88;;;1.62;83.31
11053;BME280;55230;42.602;23.470;2023-02-12T12:53:03;94463.34;;;1.85;82.57
11053;BME280;55230;42.602;23.470;2023-02-12T12:55:48;94581.19;;;2.87;82.16
11053;BME280;55230;42.602;23.470;2023-02-12T12:58:25;94583.31;;;2.60;82.85
11053;BME280;55230;42.602;23.470;2023-02-12T13:01:09;94540.97;;;2.41;82.81
11053;BME280;55230;42.602;23.470;2023-02-12T13:07:06;94558.88;;;2.48;81.75
11053;BME280;55230;42.602;23.470;2023-02-12T13:09:57;94586.88;;;2.82;82.10
11053;BME280;55230;42.602;23.470;2023-02-12T13:12:36;94499.78;;;2.28;81.75
11053;BME280;55230;42.602;23.470;2023-02-12T13:15:14;94592.38;;;2.52;83.04